Time;durP1;ratioP1;P1;durP2;ratioP2;P2;SDS_P1;SDS_P2;PMS_P1;PMS_P2;Temp;Humidity;BMP_temperature;BMP_pressure;BME280_temperature;BME280_humidity;BME280_pressure;Samples;Min_cycle;Max_cycle;Signal;HPM_P1;HPM_P2
2022/08/28 00:01:23;;;;;;;;;;;24.70;54.60;;;;;;6256577;28;19987;-41
2022/08/28 00:04:26;;;;;;;;;;;24.70;54.60;;;;;;6258850;28;19928;-41
2022/08/28 00:07:27;;;;;;;;;;;24.60;54.60;;;;;;6262041;28;19932;-40
2022/08/28 00:10:29;;;;;;;;;;;24.70;54.60;;;;;;6257774;28;20039;-39
2022/08/28 00:13:30;;;;;;;;;;;24.50;54.50;;;;;;6258548;28;20132;-41
2022/08/28 00:16:32;;;;;;;;;;;24.60;54.60;;;;;;6256102;28;19940;-41
2022/08/28 00:19:34;;;;;;;;;;;24.70;54.70;;;;;;6260455;28;20828;-40
2022/08/28 00:22:40;;;;;;;;;;;24.90;54.80;;;;;;6240679;28;20728;-41
2022/08/28 00:25:41;;;;;;;;;;;24.50;54.60;;;;;;6256457;28;19939;-42
2022/08/28 00:28:42;;;;;;;;;;;24.70;54.70;;;;;;6257316;28;19925;-40
2022/08/28 00:31:47;;;;;;;;;;;24.50;54.60;;;;;;6258549;28;19932;-39
2022/08/28 00:34:49;;;;;;;;;;;24.80;54.90;;;;;;6259123;28;20125;-40
2022/08/28 00:37:51;;;;;;;;;;;24.70;54.70;;;;;;6257739;28;20057;-39
2022/08/28 00:40:55;;;;;;;;;;;24.70;54.80;;;;;;6256387;28;21741;-41
2022/08/28 00:44:05;;;;;;;;;;;24.50;54.60;;;;;;6255658;28;19932;-43
2022/08/28 00:47:07;;;;;;;;;;;25.10;55.00;;;;;;6257038;28;20760;-41
2022/08/28 00:50:10;;;;;;;;;;;25.20;55.10;;;;;;6239367;28;19969;-41
2022/08/28 00:53:12;;;;;;;;;;;24.50;54.70;;;;;;6239406;28;20034;-40
2022/08/28 00:56:14;;;;;;;;;;;24.70;54.80;;;;;;6257750;28;20968;-39
2022/08/28 00:59:17;;;;;;;;;;;24.80;54.90;;;;;;6254630;28;20042;-41
2022/08/28 01:02:19;;;;;;;;;;;24.50;54.70;;;;;;6239625;28;19938;-39
2022/08/28 01:05:21;;;;;;;;;;;24.70;54.90;;;;;;6254147;28;19961;-39
2022/08/28 01:08:30;;;;;;;;;;;24.50;54.80;;;;;;6257966;28;20849;-40
2022/08/28 01:11:31;;;;;;;;;;;24.80;54.90;;;;;;6258022;28;19936;-41
2022/08/28 01:14:35;;;;;;;;;;;24.50;54.80;;;;;;6255185;28;19938;-40
2022/08/28 01:17:37;;;;;;;;;;;24.50;54.80;;;;;;6252414;28;20900;-39
2022/08/28 01:20:48;;;;;;;;;;;24.40;54.80;;;;;;6254992;28;19941;-40
2022/08/28 01:23:52;;;;;;;;;;;24.60;54.90;;;;;;6253876;28;19958;-39
2022/08/28 01:26:53;;;;;;;;;;;24.50;54.90;;;;;;6243311;28;20424;-39
2022/08/28 01:29:55;;;;;;;;;;;24.50;54.90;;;;;;6243208;28;20353;-39
2022/08/28 01:33:00;;;;;;;;;;;24.40;54.90;;;;;;6243978;28;19978;-41
2022/08/28 01:36:01;;;;;;;;;;;24.60;55.00;;;;;;6245499;28;20047;-40
2022/08/28 01:39:07;;;;;;;;;;;24.30;54.80;;;;;;6248075;28;21132;-39
2022/08/28 01:42:09;;;;;;;;;;;24.50;54.90;;;;;;6241721;28;20235;-41
2022/08/28 01:45:14;;;;;;;;;;;24.30;54.90;;;;;;6239858;28;19928;-42
2022/08/28 01:48:15;;;;;;;;;;;24.30;54.90;;;;;;6247086;28;21213;-41
2022/08/28 01:51:16;;;;;;;;;;;24.40;54.90;;;;;;6244667;28;20277;-38
2022/08/28 01:54:24;;;;;;;;;;;24.50;55.10;;;;;;6241227;28;20099;-39
2022/08/28 01:57:26;;;;;;;;;;;24.70;55.20;;;;;;6244829;28;19974;-39
2022/08/28 02:00:28;;;;;;;;;;;24.60;55.10;;;;;;6242514;28;20789;-39
2022/08/28 02:03:29;;;;;;;;;;;24.40;55.00;;;;;;6245522;28;19985;-38
2022/08/28 02:06:31;;;;;;;;;;;24.50;55.10;;;;;;6245037;28;20601;-39
2022/08/28 02:09:33;;;;;;;;;;;24.30;55.00;;;;;;6245809;28;20286;-39
2022/08/28 02:12:35;;;;;;;;;;;24.50;55.10;;;;;;6243251;28;20409;-40
2022/08/28 02:15:38;;;;;;;;;;;24.40;55.10;;;;;;6246310;28;19938;-39
2022/08/28 02:18:40;;;;;;;;;;;24.40;55.10;;;;;;6229300;28;19960;-39
2022/08/28 02:21:41;;;;;;;;;;;24.70;55.30;;;;;;6245416;28;19928;-40
2022/08/28 02:24:43;;;;;;;;;;;24.50;55.20;;;;;;6240267;28;20055;-41
2022/08/28 02:27:44;;;;;;;;;;;24.50;55.20;;;;;;6248224;28;20148;-39
2022/08/28 02:30:46;;;;;;;;;;;24.30;55.10;;;;;;6246013;28;20568;-40
2022/08/28 02:33:50;;;;;;;;;;;24.40;55.10;;;;;;6230673;28;20198;-39
2022/08/28 02:36:52;;;;;;;;;;;24.10;55.00;;;;;;6228745;28;20502;-39
2022/08/28 02:39:54;;;;;;;;;;;24.30;55.10;;;;;;6247185;28;20237;-40
2022/08/28 02:42:55;;;;;;;;;;;24.50;55.90;;;;;;6230561;28;19928;-38
2022/08/28 02:45:57;;;;;;;;;;;24.20;55.10;;;;;;6249565;28;20294;-39
2022/08/28 02:48:58;;;;;;;;;;;24.60;55.40;;;;;;6248980;28;20423;-39
2022/08/28 02:52:00;;;;;;;;;;;24.60;55.40;;;;;;6246594;28;20693;-38
2022/08/28 02:55:02;;;;;;;;;;;24.30;55.30;;;;;;6246740;28;20023;-39
2022/08/28 02:58:05;;;;;;;;;;;24.20;55.20;;;;;;6246473;28;20219;-38
2022/08/28 03:01:08;;;;;;;;;;;24.50;55.40;;;;;;6242760;28;20465;-39
2022/08/28 03:04:10;;;;;;;;;;;24.40;55.30;;;;;;6243811;28;20249;-39
2022/08/28 03:07:12;;;;;;;;;;;24.50;55.40;;;;;;6244548;28;20100;-39
2022/08/28 03:10:15;;;;;;;;;;;24.20;55.20;;;;;;6249768;28;20252;-40
2022/08/28 03:13:16;;;;;;;;;;;24.30;55.30;;;;;;6243540;28;20116;-39
2022/08/28 03:16:28;;;;;;;;;;;24.20;55.20;;;;;;6230502;28;19932;-39
2022/08/28 03:19:29;;;;;;;;;;;24.30;55.40;;;;;;6249079;28;20333;-39
2022/08/28 03:25:47;;;;;;;;;;;24.00;55.30;;;;;;6234624;28;20516;-39
2022/08/28 03:28:49;;;;;;;;;;;24.50;55.50;;;;;;6245702;28;20291;-39
2022/08/28 03:31:51;;;;;;;;;;;24.50;55.50;;;;;;6252559;28;20644;-38
2022/08/28 03:34:55;;;;;;;;;;;24.20;55.40;;;;;;6248119;28;20289;-38
2022/08/28 03:37:57;;;;;;;;;;;24.40;55.50;;;;;;6247553;28;20550;-39
2022/08/28 03:41:03;;;;;;;;;;;24.40;55.40;;;;;;6244065;28;20846;-39
2022/08/28 03:44:05;;;;;;;;;;;24.30;55.40;;;;;;6227850;28;20185;-39
2022/08/28 03:47:07;;;;;;;;;;;24.20;55.40;;;;;;6227586;28;19936;-39
2022/08/28 03:50:10;;;;;;;;;;;24.10;55.30;;;;;;6246050;28;20325;-38
2022/08/28 03:53:12;;;;;;;;;;;24.20;55.40;;;;;;6244191;28;20223;-41
2022/08/28 03:56:15;;;;;;;;;;;24.20;55.50;;;;;;6245572;28;20047;-39
2022/08/28 03:59:17;;;;;;;;;;;24.40;55.60;;;;;;6248754;28;19935;-38
2022/08/28 04:02:19;;;;;;;;;;;24.00;55.40;;;;;;6247893;28;20123;-39
2022/08/28 04:05:20;;;;;;;;;;;24.30;55.60;;;;;;6248966;28;19928;-39
2022/08/28 04:08:22;;;;;;;;;;;24.00;55.40;;;;;;6249970;28;20268;-39
2022/08/28 04:11:27;;;;;;;;;;;23.90;55.40;;;;;;6246270;28;19928;-39
2022/08/28 04:14:28;;;;;;;;;;;24.30;55.60;;;;;;6246216;28;20164;-40
2022/08/28 04:17:29;;;;;;;;;;;24.10;55.50;;;;;;6243903;28;19966;-39
2022/08/28 04:20:31;;;;;;;;;;;24.00;55.50;;;;;;6244680;28;19932;-39
2022/08/28 04:23:32;;;;;;;;;;;23.80;55.40;;;;;;6247528;28;20719;-39
2022/08/28 04:26:35;;;;;;;;;;;24.20;55.50;;;;;;6225875;28;20134;-40
2022/08/28 04:29:36;;;;;;;;;;;24.40;55.60;;;;;;6243118;28;20092;-41
2022/08/28 04:32:38;;;;;;;;;;;24.20;55.60;;;;;;6241789;28;20358;-39
2022/08/28 04:35:39;;;;;;;;;;;23.90;55.40;;;;;;6244562;28;20700;-39
2022/08/28 04:38:41;;;;;;;;;;;24.50;56.30;;;;;;6242735;28;20672;-38
2022/08/28 04:41:49;;;;;;;;;;;23.90;55.40;;;;;;6242735;28;19982;-39
2022/08/28 04:44:54;;;;;;;;;;;24.30;55.60;;;;;;6243258;28;19983;-39
2022/08/28 04:47:56;;;;;;;;;;;24.00;55.40;;;;;;6225596;28;20251;-41
2022/08/28 04:50:57;;;;;;;;;;;23.90;55.40;;;;;;6244098;28;20017;-39
2022/08/28 04:54:00;;;;;;;;;;;24.00;55.40;;;;;;6242328;28;20502;-39
2022/08/28 04:57:02;;;;;;;;;;;24.20;55.50;;;;;;6225606;28;20680;-38
2022/08/28 05:00:08;;;;;;;;;;;24.20;55.60;;;;;;6240642;28;19928;-39
2022/08/28 05:03:10;;;;;;;;;;;24.00;55.40;;;;;;6240142;28;20189;-39
2022/08/28 05:06:12;;;;;;;;;;;23.90;55.40;;;;;;6243449;28;20032;-40
2022/08/28 05:09:15;;;;;;;;;;;24.30;55.60;;;;;;6228166;28;20115;-40
2022/08/28 05:12:18;;;;;;;;;;;23.90;55.40;;;;;;6224043;28;19975;-41
2022/08/28 05:15:20;;;;;;;;;;;24.00;55.50;;;;;;6239004;28;20115;-39
2022/08/28 05:18:22;;;;;;;;;;;23.90;55.50;;;;;;6240999;28;19951;-39
2022/08/28 05:21:23;;;;;;;;;;;23.80;55.40;;;;;;6241120;28;19932;-38
2022/08/28 05:24:25;;;;;;;;;;;24.30;55.70;;;;;;6242135;28;20479;-40
2022/08/28 05:27:27;;;;;;;;;;;24.20;55.60;;;;;;6243652;28;19954;-39
2022/08/28 05:30:29;;;;;;;;;;;24.00;55.50;;;;;;6241283;28;20772;-41
2022/08/28 05:33:30;;;;;;;;;;;24.20;55.60;;;;;;6224911;28;20208;-38
2022/08/28 05:36:36;;;;;;;;;;;23.90;55.50;;;;;;6240559;28;20465;-38
2022/08/28 05:39:37;;;;;;;;;;;24.20;55.60;;;;;;6242173;28;20439;-39
2022/08/28 05:42:39;;;;;;;;;;;24.10;56.10;;;;;;6240773;28;19928;-39
2022/08/28 05:45:40;;;;;;;;;;;24.10;55.50;;;;;;6241486;28;20520;-41
2022/08/28 05:48:42;;;;;;;;;;;23.90;55.50;;;;;;6243146;28;20274;-39
2022/08/28 05:51:43;;;;;;;;;;;24.20;55.70;;;;;;6241794;28;20200;-41
2022/08/28 05:54:45;;;;;;;;;;;23.90;55.50;;;;;;6240967;28;20249;-39
2022/08/28 05:57:47;;;;;;;;;;;24.20;55.70;;;;;;6242051;28;20035;-39
2022/08/28 06:00:48;;;;;;;;;;;24.30;55.70;;;;;;6238091;28;20269;-39
2022/08/28 06:03:52;;;;;;;;;;;24.20;55.70;;;;;;6236117;28;20451;-39
2022/08/28 06:06:54;;;;;;;;;;;23.70;55.40;;;;;;6220559;28;19939;-40
2022/08/28 06:09:55;;;;;;;;;;;24.10;55.60;;;;;;6239342;28;19928;-39
2022/08/28 06:12:57;;;;;;;;;;;23.80;55.40;;;;;;6234336;28;20308;-41
2022/08/28 06:15:58;;;;;;;;;;;24.00;55.50;;;;;;6234206;28;20277;-38
2022/08/28 06:19:00;;;;;;;;;;;24.20;55.60;;;;;;6238573;28;20297;-39
2022/08/28 06:22:02;;;;;;;;;;;24.20;55.60;;;;;;6234375;28;20804;-39
2022/08/28 06:25:12;;;;;;;;;;;24.10;55.60;;;;;;6237604;28;20071;-39
2022/08/28 06:28:19;;;;;;;;;;;24.00;55.50;;;;;;6234198;28;20157;-39
2022/08/28 06:31:20;;;;;;;;;;;24.00;55.40;;;;;;6234176;28;20159;-40
2022/08/28 06:34:26;;;;;;;;;;;24.00;55.50;;;;;;6236446;28;19928;-42
2022/08/28 06:37:28;;;;;;;;;;;23.70;55.30;;;;;;6233771;28;19963;-41
2022/08/28 06:40:29;;;;;;;;;;;24.10;55.50;;;;;;6231771;28;19970;-40
2022/08/28 06:43:31;;;;;;;;;;;24.00;55.50;;;;;;6230434;28;19932;-40
2022/08/28 06:46:33;;;;;;;;;;;24.20;55.50;;;;;;6212774;28;19976;-39
2022/08/28 06:49:36;;;;;;;;;;;24.00;55.40;;;;;;6237748;28;20787;-39
2022/08/28 06:52:37;;;;;;;;;;;24.20;55.50;;;;;;6232585;28;20334;-39
2022/08/28 06:55:42;;;;;;;;;;;23.80;55.40;;;;;;6231731;28;20805;-40
2022/08/28 06:58:46;;;;;;;;;;;24.00;55.40;;;;;;6216797;28;19967;-41
2022/08/28 07:01:53;;;;;;;;;;;24.30;56.20;;;;;;6235308;28;20199;-39
2022/08/28 07:04:55;;;;;;;;;;;24.00;55.40;;;;;;6234061;28;20353;-40
2022/08/28 07:07:56;;;;;;;;;;;23.80;55.30;;;;;;6233098;28;19934;-39
2022/08/28 07:10:58;;;;;;;;;;;24.00;55.40;;;;;;6233875;28;19954;-39
2022/08/28 07:14:00;;;;;;;;;;;24.50;55.60;;;;;;6237140;28;20364;-38
2022/08/28 07:17:01;;;;;;;;;;;24.20;55.40;;;;;;6231582;28;20091;-38
2022/08/28 07:20:03;;;;;;;;;;;23.80;55.20;;;;;;6231080;28;20025;-40
2022/08/28 07:23:04;;;;;;;;;;;23.90;55.20;;;;;;6213255;28;20887;-39
2022/08/28 07:26:07;;;;;;;;;;;24.20;55.40;;;;;;6235570;28;20034;-39
2022/08/28 07:29:10;;;;;;;;;;;24.30;55.40;;;;;;6231826;28;20194;-39
2022/08/28 07:32:14;;;;;;;;;;;23.80;55.10;;;;;;6217511;28;19932;-39
2022/08/28 07:35:16;;;;;;;;;;;24.10;55.30;;;;;;6239908;28;20509;-39
2022/08/28 07:38:18;;;;;;;;;;;24.00;55.20;;;;;;6216704;28;20614;-40
2022/08/28 07:41:21;;;;;;;;;;;24.20;55.30;;;;;;6233956;28;20023;-38
2022/08/28 07:47:34;;;;;;;;;;;24.30;55.30;;;;;;6236129;28;20406;-39
2022/08/28 07:50:36;;;;;;;;;;;24.10;55.10;;;;;;6234603;28;20378;-39
2022/08/28 07:53:38;;;;;;;;;;;24.00;55.00;;;;;;6225646;28;20181;-42
2022/08/28 07:56:40;;;;;;;;;;;24.00;55.10;;;;;;6241646;28;20062;-41
2022/08/28 07:59:42;;;;;;;;;;;24.00;55.00;;;;;;6237761;28;20380;-41
2022/08/28 08:02:43;;;;;;;;;;;24.20;55.10;;;;;;6239137;28;20110;-39
2022/08/28 08:05:50;;;;;;;;;;;24.10;55.00;;;;;;6235810;28;19950;-40
2022/08/28 08:08:55;;;;;;;;;;;24.10;54.90;;;;;;6233008;28;19932;-39
2022/08/28 08:11:56;;;;;;;;;;;24.20;55.00;;;;;;6234192;28;19982;-39
2022/08/28 08:14:59;;;;;;;;;;;24.10;54.90;;;;;;6235799;28;19928;-40
2022/08/28 08:18:00;;;;;;;;;;;24.30;54.90;;;;;;6237915;28;20052;-39
2022/08/28 08:21:03;;;;;;;;;;;24.30;54.90;;;;;;6236937;28;20310;-39
2022/08/28 08:24:05;;;;;;;;;;;24.50;54.90;;;;;;6216253;28;20872;-40
2022/08/28 08:27:06;;;;;;;;;;;24.10;54.60;;;;;;6237960;28;19928;-41
2022/08/28 08:30:09;;;;;;;;;;;24.40;54.80;;;;;;6234961;28;20695;-40
2022/08/28 08:33:11;;;;;;;;;;;24.70;54.90;;;;;;6235463;28;19932;-41
2022/08/28 08:36:14;;;;;;;;;;;24.30;54.70;;;;;;6234124;28;20355;-41
2022/08/28 08:39:15;;;;;;;;;;;24.30;54.60;;;;;;6219294;28;20222;-40
2022/08/28 08:42:21;;;;;;;;;;;24.50;54.80;;;;;;6238206;28;20006;-41
2022/08/28 08:45:25;;;;;;;;;;;24.20;54.60;;;;;;6237773;28;20092;-39
2022/08/28 08:48:28;;;;;;;;;;;24.40;54.70;;;;;;6238868;28;19974;-39
2022/08/28 08:51:38;;;;;;;;;;;24.30;54.60;;;;;;6237500;28;20213;-39
2022/08/28 08:54:40;;;;;;;;;;;24.40;54.60;;;;;;6235444;28;20109;-40
2022/08/28 08:57:43;;;;;;;;;;;24.50;54.70;;;;;;6238383;28;20680;-40
2022/08/28 09:00:55;;;;;;;;;;;24.50;54.70;;;;;;6237641;28;19940;-39
2022/08/28 09:03:59;;;;;;;;;;;24.20;54.60;;;;;;6237258;28;19928;-43
2022/08/28 09:07:07;;;;;;;;;;;24.50;54.60;;;;;;6235014;28;20485;-41
2022/08/28 09:10:11;;;;;;;;;;;24.30;54.50;;;;;;6219919;28;20042;-39
2022/08/28 09:13:16;;;;;;;;;;;24.60;54.70;;;;;;6219844;28;20635;-39
2022/08/28 09:16:23;;;;;;;;;;;24.50;54.60;;;;;;6234977;28;19932;-39
2022/08/28 09:19:24;;;;;;;;;;;24.50;54.60;;;;;;6235799;28;19933;-39
2022/08/28 09:22:26;;;;;;;;;;;24.40;54.60;;;;;;6240123;28;19995;-40
2022/08/28 09:25:42;;;;;;;;;;;24.10;54.40;;;;;;6234255;28;20455;-39
2022/08/28 09:28:57;;;;;;;;;;;24.30;54.40;;;;;;6234542;28;20017;-39
2022/08/28 09:32:13;;;;;;;;;;;24.70;54.60;;;;;;6233263;28;20311;-39
2022/08/28 09:35:23;;;;;;;;;;;24.40;54.40;;;;;;6204678;28;20068;-40
2022/08/28 09:38:25;;;;;;;;;;;24.70;54.50;;;;;;6233444;28;20725;-41
2022/08/28 09:44:48;;;;;;;;;;;24.50;54.40;;;;;;6233941;28;20502;-39
2022/08/28 09:47:54;;;;;;;;;;;24.70;54.40;;;;;;6219070;28;20146;-39
2022/08/28 09:50:58;;;;;;;;;;;24.50;54.30;;;;;;6215075;28;19928;-39
2022/08/28 09:54:01;;;;;;;;;;;24.30;54.20;;;;;;6237061;28;19932;-40
2022/08/28 09:57:03;;;;;;;;;;;24.50;54.30;;;;;;6235052;28;20005;-39
2022/08/28 10:00:04;;;;;;;;;;;24.60;54.40;;;;;;6233692;28;20223;-39
2022/08/28 10:03:14;;;;;;;;;;;24.50;54.30;;;;;;6237873;28;20284;-39
2022/08/28 10:06:23;;;;;;;;;;;24.60;54.30;;;;;;6235385;28;20001;-39
2022/08/28 10:09:31;;;;;;;;;;;24.70;54.50;;;;;;6237000;28;20568;-39
2022/08/28 10:12:37;;;;;;;;;;;24.60;54.20;;;;;;6237750;28;20020;-39
2022/08/28 10:16:00;;;;;;;;;;;24.60;54.20;;;;;;6236657;28;19932;-39
2022/08/28 10:19:05;;;;;;;;;;;24.70;54.30;;;;;;6238207;28;19997;-42
2022/08/28 10:22:13;;;;;;;;;;;24.90;54.30;;;;;;6238198;28;21032;-38
2022/08/28 10:25:22;;;;;;;;;;;24.70;54.20;;;;;;6236448;28;20222;-39
2022/08/28 10:28:30;;;;;;;;;;;24.80;54.20;;;;;;6235720;28;20227;-39
2022/08/28 10:31:36;;;;;;;;;;;24.50;54.00;;;;;;6235873;28;20240;-39
2022/08/28 10:34:45;;;;;;;;;;;24.80;54.30;;;;;;6233806;28;19938;-39
2022/08/28 10:37:52;;;;;;;;;;;24.50;54.10;;;;;;6231879;28;20247;-40
2022/08/28 10:40:57;;;;;;;;;;;24.90;54.30;;;;;;6231642;28;20004;-39
2022/08/28 10:44:00;;;;;;;;;;;24.50;54.00;;;;;;6236826;28;20043;-39
2022/08/28 10:47:02;;;;;;;;;;;24.90;54.20;;;;;;6231627;28;20513;-40
2022/08/28 10:50:07;;;;;;;;;;;24.50;54.00;;;;;;6234858;28;20462;-38
2022/08/28 10:53:13;;;;;;;;;;;24.70;54.10;;;;;;6235777;28;19966;-39
2022/08/28 10:56:18;;;;;;;;;;;24.60;54.00;;;;;;6220002;28;20066;-39
2022/08/28 10:59:20;;;;;;;;;;;24.90;54.20;;;;;;6216768;28;19968;-39
2022/08/28 11:02:24;;;;;;;;;;;24.70;54.00;;;;;;6235032;28;19955;-40
2022/08/28 11:05:28;;;;;;;;;;;24.70;54.00;;;;;;6235978;28;19928;-39
2022/08/28 11:08:32;;;;;;;;;;;24.80;54.00;;;;;;6232159;28;20214;-39
2022/08/28 11:11:38;;;;;;;;;;;24.90;54.10;;;;;;6237260;28;19932;-39
2022/08/28 11:14:41;;;;;;;;;;;24.60;53.90;;;;;;6236218;28;20039;-39
2022/08/28 11:17:51;;;;;;;;;;;25.00;54.20;;;;;;6217391;28;20060;-39
2022/08/28 11:20:56;;;;;;;;;;;24.60;53.90;;;;;;6235376;28;20870;-40
2022/08/28 11:24:05;;;;;;;;;;;25.00;54.10;;;;;;6214594;28;20189;-39
2022/08/28 11:27:15;;;;;;;;;;;24.50;53.80;;;;;;6215154;28;20203;-39
2022/08/28 11:30:31;;;;;;;;;;;24.90;54.00;;;;;;6237374;28;20125;-39
2022/08/28 11:33:34;;;;;;;;;;;24.70;53.90;;;;;;6222555;28;19942;-40
2022/08/28 11:36:50;;;;;;;;;;;24.40;53.70;;;;;;6241815;28;20231;-39
2022/08/28 11:40:11;;;;;;;;;;;24.80;53.90;;;;;;6238223;28;20330;-40
2022/08/28 11:43:28;;;;;;;;;;;24.70;53.80;;;;;;6242973;28;19938;-39
2022/08/28 11:46:31;;;;;;;;;;;24.50;53.70;;;;;;6223675;28;20145;-39
2022/08/28 11:49:38;;;;;;;;;;;24.90;53.90;;;;;;6221710;28;20389;-38
2022/08/28 11:52:45;;;;;;;;;;;24.70;53.80;;;;;;6240134;28;20444;-39
2022/08/28 11:56:03;;;;;;;;;;;24.70;53.80;;;;;;6234506;28;20360;-39
2022/08/28 11:59:11;;;;;;;;;;;24.90;53.80;;;;;;6235180;28;20868;-40
2022/08/28 12:02:23;;;;;;;;;;;24.90;53.80;;;;;;6235179;28;20037;-41
2022/08/28 12:05:39;;;;;;;;;;;25.00;53.90;;;;;;6235840;28;20313;-39
2022/08/28 12:08:54;;;;;;;;;;;24.90;53.80;;;;;;6234290;28;19928;-39
2022/08/28 12:12:01;;;;;;;;;;;24.70;53.60;;;;;;6238912;28;19928;-39
2022/08/28 12:15:30;;;;;;;;;;;25.10;53.90;;;;;;6213590;28;20005;-39
2022/08/28 12:18:43;;;;;;;;;;;24.70;53.60;;;;;;6218283;28;20326;-40
2022/08/28 12:21:44;;;;;;;;;;;24.80;53.60;;;;;;6233002;28;20476;-38
2022/08/28 12:24:47;;;;;;;;;;;24.70;53.60;;;;;;6236822;28;20057;-39
2022/08/28 12:27:51;;;;;;;;;;;25.00;53.70;;;;;;6218131;28;21294;-40
2022/08/28 12:30:56;;;;;;;;;;;25.00;53.70;;;;;;6223842;28;19939;-39
2022/08/28 12:34:02;;;;;;;;;;;25.00;53.70;;;;;;6204342;28;20243;-41
2022/08/28 12:37:17;;;;;;;;;;;24.70;53.60;;;;;;6232005;28;19932;-38
2022/08/28 12:40:20;;;;;;;;;;;25.00;53.60;;;;;;6234311;28;20504;-39
2022/08/28 12:43:27;;;;;;;;;;;24.90;53.50;;;;;;6235350;28;19928;-39
2022/08/28 12:46:30;;;;;;;;;;;25.00;53.60;;;;;;6236651;28;19954;-39
2022/08/28 12:49:33;;;;;;;;;;;24.80;53.50;;;;;;6237470;28;19979;-39
2022/08/28 12:52:34;;;;;;;;;;;24.70;53.40;;;;;;6219765;28;20050;-39
2022/08/28 12:55:36;;;;;;;;;;;25.10;53.60;;;;;;6234670;28;20211;-39
2022/08/28 12:58:40;;;;;;;;;;;25.10;53.60;;;;;;6215749;28;20050;-39
2022/08/28 13:01:41;;;;;;;;;;;25.00;53.50;;;;;;6229878;28;19934;-39
2022/08/28 13:04:50;;;;;;;;;;;25.10;53.60;;;;;;6232564;28;20352;-39
2022/08/28 13:07:53;;;;;;;;;;;24.80;54.00;;;;;;6212629;28;20219;-39
2022/08/28 13:10:55;;;;;;;;;;;25.20;53.60;;;;;;6230477;28;19963;-39
2022/08/28 13:13:57;;;;;;;;;;;25.00;53.40;;;;;;6227078;28;19938;-39
2022/08/28 13:16:58;;;;;;;;;;;25.10;53.50;;;;;;6230582;28;20021;-39
2022/08/28 13:20:01;;;;;;;;;;;25.00;53.50;;;;;;6233718;28;20608;-39
2022/08/28 13:23:03;;;;;;;;;;;25.00;53.40;;;;;;6232382;28;20054;-39
2022/08/28 13:26:05;;;;;;;;;;;25.00;53.40;;;;;;6232919;28;19932;-38
2022/08/28 13:29:16;;;;;;;;;;;24.90;53.30;;;;;;6219173;28;20520;-39
2022/08/28 13:32:18;;;;;;;;;;;24.70;53.20;;;;;;6230256;28;20291;-41
2022/08/28 13:35:33;;;;;;;;;;;25.20;53.50;;;;;;6236074;28;20009;-38
2022/08/28 13:38:34;;;;;;;;;;;25.00;53.30;;;;;;6230928;28;20043;-39
2022/08/28 13:41:36;;;;;;;;;;;25.20;53.40;;;;;;6235561;28;20272;-40
2022/08/28 13:44:42;;;;;;;;;;;24.90;53.30;;;;;;6234927;28;20056;-39
2022/08/28 13:47:44;;;;;;;;;;;25.30;53.50;;;;;;6236559;28;20397;-39
2022/08/28 13:50:46;;;;;;;;;;;24.90;53.20;;;;;;6233116;28;19939;-39
2022/08/28 13:53:49;;;;;;;;;;;25.10;53.30;;;;;;6215960;28;20283;-38
2022/08/28 13:56:50;;;;;;;;;;;24.90;53.20;;;;;;6216032;28;20031;-39
2022/08/28 13:59:53;;;;;;;;;;;25.30;53.40;;;;;;6234640;28;20055;-39
2022/08/28 14:06:15;;;;;;;;;;;24.90;53.10;;;;;;6233321;28;19938;-39
2022/08/28 14:09:16;;;;;;;;;;;24.90;53.10;;;;;;6231965;28;20009;-39
2022/08/28 14:12:18;;;;;;;;;;;25.00;53.10;;;;;;6233129;28;20560;-39
2022/08/28 14:15:21;;;;;;;;;;;24.90;53.10;;;;;;6230646;28;20667;-39
2022/08/28 14:18:25;;;;;;;;;;;24.80;53.00;;;;;;6231877;28;19955;-39
2022/08/28 14:21:27;;;;;;;;;;;25.10;53.10;;;;;;6230080;28;20028;-39
2022/08/28 14:24:29;;;;;;;;;;;25.00;53.10;;;;;;6229608;28;21227;-42
2022/08/28 14:27:31;;;;;;;;;;;25.10;53.00;;;;;;6229856;28;20188;-40
2022/08/28 14:30:33;;;;;;;;;;;24.90;52.90;;;;;;6233983;28;20264;-38
2022/08/28 14:33:35;;;;;;;;;;;25.10;53.00;;;;;;6232581;28;20204;-39
2022/08/28 14:36:38;;;;;;;;;;;24.80;52.80;;;;;;6233087;28;20174;-40
2022/08/28 14:39:39;;;;;;;;;;;25.00;52.90;;;;;;6217242;28;20837;-39
2022/08/28 14:42:43;;;;;;;;;;;24.90;52.90;;;;;;6232153;28;20411;-39
2022/08/28 14:45:45;;;;;;;;;;;25.10;52.90;;;;;;6233726;28;20010;-41
2022/08/28 14:48:47;;;;;;;;;;;25.20;53.00;;;;;;6215799;28;20128;-39
2022/08/28 14:51:50;;;;;;;;;;;24.80;52.70;;;;;;6226871;28;20504;-40
2022/08/28 14:54:51;;;;;;;;;;;25.00;52.80;;;;;;6226749;28;20210;-39
2022/08/28 14:57:53;;;;;;;;;;;25.20;52.90;;;;;;6232746;28;19928;-39
2022/08/28 15:00:55;;;;;;;;;;;25.20;52.90;;;;;;6229835;28;20698;-39
2022/08/28 15:03:56;;;;;;;;;;;25.30;53.00;;;;;;6231487;28;20312;-39
2022/08/28 15:06:58;;;;;;;;;;;25.10;52.90;;;;;;6235601;28;20459;-42
2022/08/28 15:10:00;;;;;;;;;;;25.30;52.90;;;;;;6235096;28;20435;-41
2022/08/28 15:13:01;;;;;;;;;;;25.10;52.80;;;;;;6237151;28;20035;-39
2022/08/28 15:16:05;;;;;;;;;;;24.60;52.50;;;;;;6230857;28;19932;-39
2022/08/28 15:19:17;;;;;;;;;;;25.00;53.30;;;;;;6235291;28;19928;-42
2022/08/28 15:22:18;;;;;;;;;;;25.30;52.90;;;;;;6235750;28;19944;-40
2022/08/28 15:25:28;;;;;;;;;;;24.90;52.60;;;;;;6233831;28;20121;-39
2022/08/28 15:28:29;;;;;;;;;;;24.90;52.60;;;;;;6215981;28;20180;-40
2022/08/28 15:31:35;;;;;;;;;;;25.10;52.70;;;;;;6216327;28;20702;-41
2022/08/28 15:34:37;;;;;;;;;;;25.10;52.70;;;;;;6199160;28;20395;-39
2022/08/28 15:37:38;;;;;;;;;;;25.10;52.70;;;;;;6215428;28;20173;-40
2022/08/28 15:43:56;;;;;;;;;;;25.10;52.60;;;;;;6216638;28;20051;-39
2022/08/28 15:47:00;;;;;;;;;;;25.20;52.70;;;;;;6198951;28;19932;-39
2022/08/28 15:50:01;;;;;;;;;;;25.20;52.60;;;;;;6217362;28;21320;-39
2022/08/28 15:53:05;;;;;;;;;;;24.90;52.50;;;;;;6216436;28;19932;-39
2022/08/28 15:56:07;;;;;;;;;;;25.10;52.60;;;;;;6218893;28;19932;-38
2022/08/28 15:59:09;;;;;;;;;;;25.00;52.50;;;;;;6215118;28;20449;-42
2022/08/28 16:02:12;;;;;;;;;;;25.10;52.60;;;;;;6213500;28;20903;-39
2022/08/28 16:05:14;;;;;;;;;;;25.10;52.50;;;;;;6218377;28;20315;-39
2022/08/28 16:08:15;;;;;;;;;;;25.20;52.70;;;;;;6214054;28;19932;-39
2022/08/28 16:11:17;;;;;;;;;;;25.20;52.60;;;;;;6216116;28;19932;-41
2022/08/28 16:14:19;;;;;;;;;;;25.00;52.50;;;;;;6194998;28;20218;-39
2022/08/28 16:17:22;;;;;;;;;;;25.10;52.50;;;;;;6214152;28;19936;-39
2022/08/28 16:20:27;;;;;;;;;;;25.00;52.40;;;;;;6217941;28;20467;-41
2022/08/28 16:23:31;;;;;;;;;;;25.10;52.50;;;;;;6216704;28;20233;-39
2022/08/28 16:26:32;;;;;;;;;;;25.10;52.50;;;;;;6217592;28;21201;-39
2022/08/28 16:29:34;;;;;;;;;;;25.00;52.40;;;;;;6227242;28;20025;-39
2022/08/28 16:32:38;;;;;;;;;;;25.20;52.60;;;;;;6231741;28;20247;-39
2022/08/28 16:35:41;;;;;;;;;;;25.10;52.50;;;;;;6232698;28;19940;-39
2022/08/28 16:38:50;;;;;;;;;;;25.20;52.60;;;;;;6227505;28;19932;-39
2022/08/28 16:42:04;;;;;;;;;;;25.20;52.60;;;;;;6231638;28;19932;-39
2022/08/28 16:45:06;;;;;;;;;;;25.10;52.50;;;;;;6234099;28;20606;-40
2022/08/28 16:48:08;;;;;;;;;;;25.20;52.50;;;;;;6236748;28;20301;-40
2022/08/28 16:51:10;;;;;;;;;;;24.90;52.40;;;;;;6235046;28;20039;-41
2022/08/28 16:54:12;;;;;;;;;;;25.00;52.40;;;;;;6215611;28;20471;-41
2022/08/28 16:57:13;;;;;;;;;;;24.90;52.40;;;;;;6231252;28;19932;-39
2022/08/28 17:00:14;;;;;;;;;;;25.00;52.40;;;;;;6231949;28;20141;-39
2022/08/28 17:03:20;;;;;;;;;;;24.70;52.30;;;;;;6233951;28;20285;-39
2022/08/28 17:06:28;;;;;;;;;;;25.20;52.60;;;;;;6218672;28;19935;-39
2022/08/28 17:09:30;;;;;;;;;;;24.80;52.30;;;;;;6215669;28;19958;-39
2022/08/28 17:12:32;;;;;;;;;;;24.90;52.40;;;;;;6214087;28;20149;-40
2022/08/28 17:15:33;;;;;;;;;;;24.80;52.40;;;;;;6234199;28;20030;-39
2022/08/28 17:18:35;;;;;;;;;;;25.20;52.60;;;;;;6235794;28;20259;-40
2022/08/28 17:24:57;;;;;;;;;;;25.10;52.40;;;;;;6234177;28;19932;-39
2022/08/28 17:27:59;;;;;;;;;;;24.90;52.40;;;;;;6235312;28;20668;-42
2022/08/28 17:31:00;;;;;;;;;;;25.10;52.40;;;;;;6234805;28;20019;-39
2022/08/28 17:34:04;;;;;;;;;;;25.00;52.50;;;;;;6232622;28;20222;-39
2022/08/28 17:37:05;;;;;;;;;;;25.10;52.40;;;;;;6233748;28;20229;-39
2022/08/28 17:40:08;;;;;;;;;;;25.20;52.60;;;;;;6233079;28;20382;-42
2022/08/28 17:43:09;;;;;;;;;;;24.90;52.30;;;;;;6217282;28;19932;-42
2022/08/28 17:46:12;;;;;;;;;;;25.00;52.40;;;;;;6229419;28;20375;-42
2022/08/28 17:49:16;;;;;;;;;;;25.00;52.40;;;;;;6230880;28;20097;-39
2022/08/28 17:52:18;;;;;;;;;;;24.60;52.20;;;;;;6233191;28;20842;-39
2022/08/28 17:55:20;;;;;;;;;;;24.90;52.40;;;;;;6215025;28;20627;-41
2022/08/28 17:58:21;;;;;;;;;;;25.20;52.60;;;;;;6231850;28;20485;-39
2022/08/28 18:01:24;;;;;;;;;;;25.00;52.40;;;;;;6232152;28;20451;-39
2022/08/28 18:04:26;;;;;;;;;;;24.80;52.40;;;;;;6211183;28;19932;-41
2022/08/28 18:07:27;;;;;;;;;;;25.10;52.50;;;;;;6228058;28;20371;-41